sensor_id;sensor_type;location;lat;lon;timestamp;P1;durP1;ratioP1;P2;durP2;ratioP2
36195;SDS011;22237;51.974;4.616;2023-04-24T00:01:05;1.30;;;1.20;;
36195;SDS011;22237;51.974;4.616;2023-04-24T00:03:32;4.22;;;1.45;;
36195;SDS011;22237;51.974;4.616;2023-04-24T00:05:57;3.00;;;1.33;;
36195;SDS011;22237;51.974;4.616;2023-04-24T00:08:23;3.97;;;1.40;;
36195;SDS011;22237;51.974;4.616;2023-04-24T00:10:49;5.32;;;1.33;;
36195;SDS011;22237;51.974;4.616;2023-04-24T00:13:21;1.40;;;1.20;;
36195;SDS011;22237;51.974;4.616;2023-04-24T00:15:46;2.50;;;1.48;;
36195;SDS011;22237;51.974;4.616;2023-04-24T00:18:12;1.73;;;1.60;;
36195;SDS011;22237;51.974;4.616;2023-04-24T00:20:37;1.90;;;1.20;;
36195;SDS011;22237;51.974;4.616;2023-04-24T00:23:02;0.70;;;0.70;;
36195;SDS011;22237;51.974;4.616;2023-04-24T00:25:27;1.20;;;1.10;;
36195;SDS011;22237;51.974;4.616;2023-04-24T00:27:53;2.70;;;1.13;;
36195;SDS011;22237;51.974;4.616;2023-04-24T00:30:18;0.87;;;0.87;;
36195;SDS011;22237;51.974;4.616;2023-04-24T00:32:43;1.77;;;1.23;;
36195;SDS011;22237;51.974;4.616;2023-04-24T00:35:08;1.50;;;0.80;;
36195;SDS011;22237;51.974;4.616;2023-04-24T00:37:34;1.95;;;1.00;;
36195;SDS011;22237;51.974;4.616;2023-04-24T00:39:59;2.33;;;1.27;;
36195;SDS011;22237;51.974;4.616;2023-04-24T00:42:24;1.67;;;1.33;;
36195;SDS011;22237;51.974;4.616;2023-04-24T00:44:50;0.88;;;0.88;;
36195;SDS011;22237;51.974;4.616;2023-04-24T00:47:15;3.95;;;1.35;;
36195;SDS011;22237;51.974;4.616;2023-04-24T00:49:41;1.50;;;1.23;;
36195;SDS011;22237;51.974;4.616;2023-04-24T00:52:06;1.77;;;1.15;;
36195;SDS011;22237;51.974;4.616;2023-04-24T00:54:33;3.60;;;1.38;;
36195;SDS011;22237;51.974;4.616;2023-04-24T00:56:59;1.08;;;0.98;;
36195;SDS011;22237;51.974;4.616;2023-04-24T00:59:25;1.00;;;0.95;;
36195;SDS011;22237;51.974;4.616;2023-04-24T01:01:50;2.17;;;1.13;;
36195;SDS011;22237;51.974;4.616;2023-04-24T01:04:16;1.27;;;1.17;;
36195;SDS011;22237;51.974;4.616;2023-04-24T01:06:42;2.17;;;1.50;;
36195;SDS011;22237;51.974;4.616;2023-04-24T01:09:08;1.30;;;1.20;;
36195;SDS011;22237;51.974;4.616;2023-04-24T01:11:35;4.85;;;1.67;;
36195;SDS011;22237;51.974;4.616;2023-04-24T01:14:01;5.60;;;1.88;;
36195;SDS011;22237;51.974;4.616;2023-04-24T01:16:26;2.72;;;1.92;;
36195;SDS011;22237;51.974;4.616;2023-04-24T01:18:51;1.95;;;1.55;;
36195;SDS011;22237;51.974;4.616;2023-04-24T01:21:17;3.07;;;1.73;;
36195;SDS011;22237;51.974;4.616;2023-04-24T01:23:43;3.35;;;1.95;;
36195;SDS011;22237;51.974;4.616;2023-04-24T01:26:08;3.63;;;2.10;;
36195;SDS011;22237;51.974;4.616;2023-04-24T01:28:33;2.10;;;1.90;;
36195;SDS011;22237;51.974;4.616;2023-04-24T01:30:59;2.47;;;1.67;;
36195;SDS011;22237;51.974;4.616;2023-04-24T01:33:24;2.45;;;1.83;;
36195;SDS011;22237;51.974;4.616;2023-04-24T01:35:50;3.35;;;2.00;;
36195;SDS011;22237;51.974;4.616;2023-04-24T01:38:15;3.42;;;1.90;;
36195;SDS011;22237;51.974;4.616;2023-04-24T01:40:40;4.18;;;2.38;;
36195;SDS011;22237;51.974;4.616;2023-04-24T01:43:06;2.88;;;1.63;;
36195;SDS011;22237;51.974;4.616;2023-04-24T01:45:31;3.03;;;1.48;;
36195;SDS011;22237;51.974;4.616;2023-04-24T01:47:56;2.10;;;1.55;;
36195;SDS011;22237;51.974;4.616;2023-04-24T01:50:22;9.70;;;1.50;;
36195;SDS011;22237;51.974;4.616;2023-04-24T01:52:47;2.10;;;1.45;;
36195;SDS011;22237;51.974;4.616;2023-04-24T01:55:12;1.23;;;1.15;;
36195;SDS011;22237;51.974;4.616;2023-04-24T01:57:38;2.30;;;1.02;;
36195;SDS011;22237;51.974;4.616;2023-04-24T02:00:03;2.88;;;1.25;;
36195;SDS011;22237;51.974;4.616;2023-04-24T02:02:32;0.60;;;0.60;;
36195;SDS011;22237;51.974;4.616;2023-04-24T02:04:57;1.48;;;0.85;;
36195;SDS011;22237;51.974;4.616;2023-04-24T02:07:22;1.33;;;0.90;;
36195;SDS011;22237;51.974;4.616;2023-04-24T02:09:48;0.82;;;0.70;;
36195;SDS011;22237;51.974;4.616;2023-04-24T02:12:13;2.50;;;0.77;;
36195;SDS011;22237;51.974;4.616;2023-04-24T02:14:38;0.50;;;0.50;;
36195;SDS011;22237;51.974;4.616;2023-04-24T02:17:04;3.05;;;0.90;;
36195;SDS011;22237;51.974;4.616;2023-04-24T02:19:30;3.25;;;0.88;;
36195;SDS011;22237;51.974;4.616;2023-04-24T02:21:55;2.97;;;0.82;;
36195;SDS011;22237;51.974;4.616;2023-04-24T02:24:20;0.90;;;0.77;;
36195;SDS011;22237;51.974;4.616;2023-04-24T02:26:45;0.80;;;0.80;;
36195;SDS011;22237;51.974;4.616;2023-04-24T02:29:10;1.00;;;0.80;;
36195;SDS011;22237;51.974;4.616;2023-04-24T02:31:36;1.20;;;1.10;;
36195;SDS011;22237;51.974;4.616;2023-04-24T02:34:01;0.95;;;0.73;;
36195;SDS011;22237;51.974;4.616;2023-04-24T02:36:26;2.03;;;1.00;;
36195;SDS011;22237;51.974;4.616;2023-04-24T02:38:51;1.13;;;1.05;;
36195;SDS011;22237;51.974;4.616;2023-04-24T02:41:17;2.40;;;1.17;;
36195;SDS011;22237;51.974;4.616;2023-04-24T02:43:42;1.20;;;1.00;;
36195;SDS011;22237;51.974;4.616;2023-04-24T02:46:07;1.07;;;0.97;;
36195;SDS011;22237;51.974;4.616;2023-04-24T02:48:32;1.27;;;1.17;;
36195;SDS011;22237;51.974;4.616;2023-04-24T02:50:58;1.05;;;0.95;;
36195;SDS011;22237;51.974;4.616;2023-04-24T02:53:23;1.70;;;1.30;;
36195;SDS011;22237;51.974;4.616;2023-04-24T02:55:48;4.47;;;1.48;;
36195;SDS011;22237;51.974;4.616;2023-04-24T02:58:14;3.63;;;1.80;;
36195;SDS011;22237;51.974;4.616;2023-04-24T03:00:39;2.25;;;1.48;;
36195;SDS011;22237;51.974;4.616;2023-04-24T03:03:04;1.95;;;1.55;;
36195;SDS011;22237;51.974;4.616;2023-04-24T03:05:30;1.23;;;1.13;;
36195;SDS011;22237;51.974;4.616;2023-04-24T03:07:56;1.17;;;1.00;;
36195;SDS011;22237;51.974;4.616;2023-04-24T03:10:21;6.82;;;1.00;;
36195;SDS011;22237;51.974;4.616;2023-04-24T03:12:47;3.58;;;1.20;;
36195;SDS011;22237;51.974;4.616;2023-04-24T03:15:12;3.08;;;0.40;;
36195;SDS011;22237;51.974;4.616;2023-04-24T03:17:37;0.70;;;0.70;;
36195;SDS011;22237;51.974;4.616;2023-04-24T03:20:03;0.83;;;0.50;;
36195;SDS011;22237;51.974;4.616;2023-04-24T03:22:30;0.65;;;0.65;;
36195;SDS011;22237;51.974;4.616;2023-04-24T03:24:57;3.50;;;0.70;;
36195;SDS011;22237;51.974;4.616;2023-04-24T03:27:22;1.23;;;1.13;;
36195;SDS011;22237;51.974;4.616;2023-04-24T03:29:47;0.83;;;0.70;;
36195;SDS011;22237;51.974;4.616;2023-04-24T03:32:13;0.68;;;0.50;;
36195;SDS011;22237;51.974;4.616;2023-04-24T03:34:38;1.90;;;0.88;;
36195;SDS011;22237;51.974;4.616;2023-04-24T03:37:03;0.50;;;0.50;;
36195;SDS011;22237;51.974;4.616;2023-04-24T03:39:28;2.00;;;0.90;;
36195;SDS011;22237;51.974;4.616;2023-04-24T03:41:53;4.95;;;1.13;;
36195;SDS011;22237;51.974;4.616;2023-04-24T03:44:19;0.40;;;0.40;;
36195;SDS011;22237;51.974;4.616;2023-04-24T03:46:44;2.67;;;1.00;;
36195;SDS011;22237;51.974;4.616;2023-04-24T03:49:09;2.37;;;0.70;;
36195;SDS011;22237;51.974;4.616;2023-04-24T03:51:34;1.90;;;0.80;;
36195;SDS011;22237;51.974;4.616;2023-04-24T03:54:00;3.72;;;1.17;;
36195;SDS011;22237;51.974;4.616;2023-04-24T03:56:25;3.17;;;0.82;;
36195;SDS011;22237;51.974;4.616;2023-04-24T03:58:50;0.70;;;0.70;;
36195;SDS011;22237;51.974;4.616;2023-04-24T04:01:15;2.57;;;1.00;;
36195;SDS011;22237;51.974;4.616;2023-04-24T04:03:41;1.33;;;1.05;;
36195;SDS011;22237;51.974;4.616;2023-04-24T04:06:06;1.02;;;0.77;;
36195;SDS011;22237;51.974;4.616;2023-04-24T04:08:31;4.57;;;1.50;;
36195;SDS011;22237;51.974;4.616;2023-04-24T04:10:56;5.10;;;1.00;;
36195;SDS011;22237;51.974;4.616;2023-04-24T04:13:21;0.70;;;0.70;;
36195;SDS011;22237;51.974;4.616;2023-04-24T04:15:47;0.90;;;0.87;;
36195;SDS011;22237;51.974;4.616;2023-04-24T04:18:12;2.05;;;0.95;;
36195;SDS011;22237;51.974;4.616;2023-04-24T04:20:37;0.95;;;0.80;;
36195;SDS011;22237;51.974;4.616;2023-04-24T04:23:02;1.02;;;0.82;;
36195;SDS011;22237;51.974;4.616;2023-04-24T04:25:27;1.70;;;1.10;;
36195;SDS011;22237;51.974;4.616;2023-04-24T04:27:54;6.80;;;1.40;;
36195;SDS011;22237;51.974;4.616;2023-04-24T04:30:19;4.25;;;1.20;;
36195;SDS011;22237;51.974;4.616;2023-04-24T04:32:45;1.30;;;1.00;;
36195;SDS011;22237;51.974;4.616;2023-04-24T04:35:11;5.18;;;1.20;;
36195;SDS011;22237;51.974;4.616;2023-04-24T04:37:36;5.35;;;1.63;;
36195;SDS011;22237;51.974;4.616;2023-04-24T04:40:02;1.27;;;0.80;;
36195;SDS011;22237;51.974;4.616;2023-04-24T04:42:31;1.95;;;0.90;;
36195;SDS011;22237;51.974;4.616;2023-04-24T04:44:57;0.95;;;0.73;;
36195;SDS011;22237;51.974;4.616;2023-04-24T04:47:22;6.43;;;1.35;;
36195;SDS011;22237;51.974;4.616;2023-04-24T04:49:48;3.22;;;1.23;;
36195;SDS011;22237;51.974;4.616;2023-04-24T04:52:13;5.13;;;0.90;;
36195;SDS011;22237;51.974;4.616;2023-04-24T04:54:38;1.57;;;1.17;;
36195;SDS011;22237;51.974;4.616;2023-04-24T04:57:04;5.95;;;1.20;;
36195;SDS011;22237;51.974;4.616;2023-04-24T04:59:29;2.93;;;1.53;;
36195;SDS011;22237;51.974;4.616;2023-04-24T05:01:54;5.78;;;1.70;;
36195;SDS011;22237;51.974;4.616;2023-04-24T05:04:19;7.50;;;1.80;;
36195;SDS011;22237;51.974;4.616;2023-04-24T05:06:45;4.65;;;1.90;;
36195;SDS011;22237;51.974;4.616;2023-04-24T05:09:12;6.55;;;2.13;;
36195;SDS011;22237;51.974;4.616;2023-04-24T05:11:37;4.10;;;1.92;;
36195;SDS011;22237;51.974;4.616;2023-04-24T05:14:02;8.00;;;1.98;;
36195;SDS011;22237;51.974;4.616;2023-04-24T05:16:27;3.53;;;2.55;;
36195;SDS011;22237;51.974;4.616;2023-04-24T05:18:53;10.70;;;3.83;;
36195;SDS011;22237;51.974;4.616;2023-04-24T05:21:18;12.70;;;4.27;;
36195;SDS011;22237;51.974;4.616;2023-04-24T05:23:43;14.35;;;5.32;;
36195;SDS011;22237;51.974;4.616;2023-04-24T05:26:08;14.53;;;4.93;;
36195;SDS011;22237;51.974;4.616;2023-04-24T05:28:34;12.68;;;5.55;;
36195;SDS011;22237;51.974;4.616;2023-04-24T05:31:01;12.57;;;5.82;;
36195;SDS011;22237;51.974;4.616;2023-04-24T05:33:27;14.35;;;5.50;;
36195;SDS011;22237;51.974;4.616;2023-04-24T05:35:52;13.70;;;5.53;;
36195;SDS011;22237;51.974;4.616;2023-04-24T05:38:17;14.70;;;6.13;;
36195;SDS011;22237;51.974;4.616;2023-04-24T05:40:44;10.90;;;4.72;;
36195;SDS011;22237;51.974;4.616;2023-04-24T05:43:10;21.13;;;5.68;;
36195;SDS011;22237;51.974;4.616;2023-04-24T05:45:35;18.37;;;7.23;;
36195;SDS011;22237;51.974;4.616;2023-04-24T05:48:01;15.88;;;5.70;;
36195;SDS011;22237;51.974;4.616;2023-04-24T05:50:26;17.73;;;5.72;;
36195;SDS011;22237;51.974;4.616;2023-04-24T05:52:51;12.30;;;5.97;;
36195;SDS011;22237;51.974;4.616;2023-04-24T05:55:16;13.80;;;5.80;;
36195;SDS011;22237;51.974;4.616;2023-04-24T05:57:42;16.15;;;6.00;;
36195;SDS011;22237;51.974;4.616;2023-04-24T06:00:07;10.40;;;5.88;;
36195;SDS011;22237;51.974;4.616;2023-04-24T06:02:33;12.07;;;6.03;;
36195;SDS011;22237;51.974;4.616;2023-04-24T06:04:58;23.20;;;6.20;;
36195;SDS011;22237;51.974;4.616;2023-04-24T06:07:24;17.85;;;6.20;;
36195;SDS011;22237;51.974;4.616;2023-04-24T06:09:51;16.33;;;6.18;;
36195;SDS011;22237;51.974;4.616;2023-04-24T06:12:17;21.88;;;6.38;;
36195;SDS011;22237;51.974;4.616;2023-04-24T06:14:42;22.27;;;6.27;;
36195;SDS011;22237;51.974;4.616;2023-04-24T06:17:07;9.55;;;4.68;;
36195;SDS011;22237;51.974;4.616;2023-04-24T06:19:32;18.30;;;5.37;;
36195;SDS011;22237;51.974;4.616;2023-04-24T06:21:57;13.23;;;5.83;;
36195;SDS011;22237;51.974;4.616;2023-04-24T06:24:26;17.00;;;4.57;;
36195;SDS011;22237;51.974;4.616;2023-04-24T06:26:52;18.58;;;4.07;;
36195;SDS011;22237;51.974;4.616;2023-04-24T06:29:17;28.20;;;4.07;;
36195;SDS011;22237;51.974;4.616;2023-04-24T06:31:42;17.90;;;4.27;;
36195;SDS011;22237;51.974;4.616;2023-04-24T06:34:07;18.73;;;3.57;;
36195;SDS011;22237;51.974;4.616;2023-04-24T06:36:32;19.43;;;4.97;;
36195;SDS011;22237;51.974;4.616;2023-04-24T06:38:59;11.75;;;3.28;;
36195;SDS011;22237;51.974;4.616;2023-04-24T06:41:24;15.55;;;3.95;;
36195;SDS011;22237;51.974;4.616;2023-04-24T06:43:50;12.55;;;3.33;;
36195;SDS011;22237;51.974;4.616;2023-04-24T06:46:15;13.75;;;3.15;;
36195;SDS011;22237;51.974;4.616;2023-04-24T06:48:40;17.33;;;4.00;;
36195;SDS011;22237;51.974;4.616;2023-04-24T06:51:05;18.25;;;3.55;;
36195;SDS011;22237;51.974;4.616;2023-04-24T06:53:30;19.20;;;3.65;;
36195;SDS011;22237;51.974;4.616;2023-04-24T06:55:56;19.50;;;3.80;;
36195;SDS011;22237;51.974;4.616;2023-04-24T06:58:21;17.52;;;3.60;;
36195;SDS011;22237;51.974;4.616;2023-04-24T07:00:46;7.63;;;3.53;;
36195;SDS011;22237;51.974;4.616;2023-04-24T07:03:14;18.37;;;3.10;;
36195;SDS011;22237;51.974;4.616;2023-04-24T07:05:39;10.88;;;3.10;;
36195;SDS011;22237;51.974;4.616;2023-04-24T07:08:05;28.95;;;3.60;;
36195;SDS011;22237;51.974;4.616;2023-04-24T07:10:31;13.50;;;2.90;;
36195;SDS011;22237;51.974;4.616;2023-04-24T07:12:59;14.48;;;3.42;;
36195;SDS011;22237;51.974;4.616;2023-04-24T07:15:24;18.98;;;2.63;;
36195;SDS011;22237;51.974;4.616;2023-04-24T07:17:49;13.07;;;2.83;;
36195;SDS011;22237;51.974;4.616;2023-04-24T07:20:14;14.57;;;3.30;;
36195;SDS011;22237;51.974;4.616;2023-04-24T07:22:40;19.98;;;3.20;;
36195;SDS011;22237;51.974;4.616;2023-04-24T07:25:06;9.85;;;2.55;;
36195;SDS011;22237;51.974;4.616;2023-04-24T07:27:31;11.27;;;2.22;;
36195;SDS011;22237;51.974;4.616;2023-04-24T07:29:57;14.27;;;2.28;;
36195;SDS011;22237;51.974;4.616;2023-04-24T07:32:22;10.97;;;2.10;;
36195;SDS011;22237;51.974;4.616;2023-04-24T07:34:47;11.93;;;3.60;;
36195;SDS011;22237;51.974;4.616;2023-04-24T07:37:12;17.60;;;2.93;;
36195;SDS011;22237;51.974;4.616;2023-04-24T07:39:38;20.25;;;2.72;;
36195;SDS011;22237;51.974;4.616;2023-04-24T07:42:03;11.05;;;2.42;;
36195;SDS011;22237;51.974;4.616;2023-04-24T07:44:28;9.35;;;2.40;;
36195;SDS011;22237;51.974;4.616;2023-04-24T07:49:53;20.48;;;2.53;;
36195;SDS011;22237;51.974;4.616;2023-04-24T07:52:18;13.35;;;2.55;;
36195;SDS011;22237;51.974;4.616;2023-04-24T07:54:43;13.13;;;2.53;;
36195;SDS011;22237;51.974;4.616;2023-04-24T07:57:08;8.40;;;1.70;;
36195;SDS011;22237;51.974;4.616;2023-04-24T07:59:34;16.80;;;2.85;;
36195;SDS011;22237;51.974;4.616;2023-04-24T08:01:59;16.52;;;1.55;;
36195;SDS011;22237;51.974;4.616;2023-04-24T08:04:26;13.88;;;2.58;;
36195;SDS011;22237;51.974;4.616;2023-04-24T08:06:51;12.27;;;2.20;;
36195;SDS011;22237;51.974;4.616;2023-04-24T08:09:16;11.05;;;2.38;;
36195;SDS011;22237;51.974;4.616;2023-04-24T08:11:41;14.90;;;1.93;;
36195;SDS011;22237;51.974;4.616;2023-04-24T08:14:07;9.77;;;2.63;;
36195;SDS011;22237;51.974;4.616;2023-04-24T08:16:32;6.53;;;2.08;;
36195;SDS011;22237;51.974;4.616;2023-04-24T08:18:57;15.35;;;2.92;;
36195;SDS011;22237;51.974;4.616;2023-04-24T08:21:23;6.25;;;1.83;;
36195;SDS011;22237;51.974;4.616;2023-04-24T08:23:48;16.20;;;2.13;;
36195;SDS011;22237;51.974;4.616;2023-04-24T08:26:13;9.43;;;2.13;;
36195;SDS011;22237;51.974;4.616;2023-04-24T08:28:38;4.90;;;1.80;;
36195;SDS011;22237;51.974;4.616;2023-04-24T08:31:04;3.20;;;1.70;;
36195;SDS011;22237;51.974;4.616;2023-04-24T08:33:29;12.52;;;1.60;;
36195;SDS011;22237;51.974;4.616;2023-04-24T08:36:08;5.00;;;1.55;;
36195;SDS011;22237;51.974;4.616;2023-04-24T08:38:33;4.53;;;1.55;;
36195;SDS011;22237;51.974;4.616;2023-04-24T08:40:59;6.17;;;1.37;;
36195;SDS011;22237;51.974;4.616;2023-04-24T08:43:25;6.22;;;1.48;;
36195;SDS011;22237;51.974;4.616;2023-04-24T08:45:51;3.55;;;1.27;;
36195;SDS011;22237;51.974;4.616;2023-04-24T08:48:17;5.57;;;1.77;;
36195;SDS011;22237;51.974;4.616;2023-04-24T08:50:42;2.08;;;1.25;;
36195;SDS011;22237;51.974;4.616;2023-04-24T08:53:09;10.50;;;1.70;;
36195;SDS011;22237;51.974;4.616;2023-04-24T08:55:35;11.23;;;1.38;;
36195;SDS011;22237;51.974;4.616;2023-04-24T08:58:00;5.65;;;1.65;;
36195;SDS011;22237;51.974;4.616;2023-04-24T09:00:26;6.22;;;1.63;;
36195;SDS011;22237;51.974;4.616;2023-04-24T09:02:53;4.82;;;1.27;;
36195;SDS011;22237;51.974;4.616;2023-04-24T09:05:18;1.92;;;0.82;;
36195;SDS011;22237;51.974;4.616;2023-04-24T09:07:46;8.75;;;1.27;;
36195;SDS011;22237;51.974;4.616;2023-04-24T09:10:12;4.72;;;0.77;;
36195;SDS011;22237;51.974;4.616;2023-04-24T09:12:38;0.73;;;0.73;;
36195;SDS011;22237;51.974;4.616;2023-04-24T09:15:03;5.93;;;0.93;;
36195;SDS011;22237;51.974;4.616;2023-04-24T09:17:30;1.65;;;1.08;;
36195;SDS011;22237;51.974;4.616;2023-04-24T09:19:55;6.13;;;1.05;;
36195;SDS011;22237;51.974;4.616;2023-04-24T09:22:20;3.85;;;0.93;;
36195;SDS011;22237;51.974;4.616;2023-04-24T09:24:46;1.95;;;1.08;;
36195;SDS011;22237;51.974;4.616;2023-04-24T09:27:11;4.82;;;1.13;;
36195;SDS011;22237;51.974;4.616;2023-04-24T09:29:37;2.75;;;0.80;;
36195;SDS011;22237;51.974;4.616;2023-04-24T09:32:21;5.90;;;1.27;;
36195;SDS011;22237;51.974;4.616;2023-04-24T09:34:47;4.90;;;0.75;;
36195;SDS011;22237;51.974;4.616;2023-04-24T09:37:23;3.33;;;0.70;;
36195;SDS011;22237;51.974;4.616;2023-04-24T09:40:07;1.77;;;0.95;;
36195;SDS011;22237;51.974;4.616;2023-04-24T09:42:32;5.43;;;1.05;;
36195;SDS011;22237;51.974;4.616;2023-04-24T09:45:11;0.45;;;0.38;;
36195;SDS011;22237;51.974;4.616;2023-04-24T09:47:40;2.40;;;0.73;;
36195;SDS011;22237;51.974;4.616;2023-04-24T09:50:08;0.77;;;0.57;;
36195;SDS011;22237;51.974;4.616;2023-04-24T09:52:34;2.00;;;0.95;;
36195;SDS011;22237;51.974;4.616;2023-04-24T09:54:59;3.93;;;0.80;;
36195;SDS011;22237;51.974;4.616;2023-04-24T09:57:24;2.43;;;0.60;;
36195;SDS011;22237;51.974;4.616;2023-04-24T09:59:49;2.20;;;0.93;;
36195;SDS011;22237;51.974;4.616;2023-04-24T10:02:18;10.50;;;1.10;;
36195;SDS011;22237;51.974;4.616;2023-04-24T10:04:53;3.53;;;0.95;;
36195;SDS011;22237;51.974;4.616;2023-04-24T10:07:19;6.78;;;0.77;;
36195;SDS011;22237;51.974;4.616;2023-04-24T10:09:44;2.58;;;0.90;;
36195;SDS011;22237;51.974;4.616;2023-04-24T10:12:09;4.10;;;0.90;;
36195;SDS011;22237;51.974;4.616;2023-04-24T10:14:35;2.88;;;0.60;;
36195;SDS011;22237;51.974;4.616;2023-04-24T10:17:01;3.40;;;0.80;;
36195;SDS011;22237;51.974;4.616;2023-04-24T10:19:26;0.75;;;0.60;;
36195;SDS011;22237;51.974;4.616;2023-04-24T10:21:51;2.05;;;0.93;;
36195;SDS011;22237;51.974;4.616;2023-04-24T10:24:17;2.75;;;1.17;;
36195;SDS011;22237;51.974;4.616;2023-04-24T10:26:44;3.35;;;0.75;;
36195;SDS011;22237;51.974;4.616;2023-04-24T10:29:13;3.05;;;0.68;;
36195;SDS011;22237;51.974;4.616;2023-04-24T10:31:38;3.55;;;1.10;;
36195;SDS011;22237;51.974;4.616;2023-04-24T10:34:04;4.50;;;0.95;;
36195;SDS011;22237;51.974;4.616;2023-04-24T10:36:30;2.30;;;0.75;;
36195;SDS011;22237;51.974;4.616;2023-04-24T10:38:57;0.82;;;0.50;;
36195;SDS011;22237;51.974;4.616;2023-04-24T10:41:25;3.42;;;0.68;;
36195;SDS011;22237;51.974;4.616;2023-04-24T10:46:31;2.10;;;1.05;;
36195;SDS011;22237;51.974;4.616;2023-04-24T10:48:57;6.15;;;0.63;;
36195;SDS011;22237;51.974;4.616;2023-04-24T10:51:23;2.95;;;0.70;;
36195;SDS011;22237;51.974;4.616;2023-04-24T10:53:51;5.90;;;0.98;;
36195;SDS011;22237;51.974;4.616;2023-04-24T10:56:17;8.52;;;0.80;;
36195;SDS011;22237;51.974;4.616;2023-04-24T10:58:53;10.57;;;0.95;;
36195;SDS011;22237;51.974;4.616;2023-04-24T11:03:50;3.33;;;0.70;;
36195;SDS011;22237;51.974;4.616;2023-04-24T11:06:18;3.60;;;0.90;;
36195;SDS011;22237;51.974;4.616;2023-04-24T11:08:53;2.13;;;0.70;;
36195;SDS011;22237;51.974;4.616;2023-04-24T11:11:23;1.77;;;1.00;;
36195;SDS011;22237;51.974;4.616;2023-04-24T11:18:50;2.83;;;1.08;;
36195;SDS011;22237;51.974;4.616;2023-04-24T11:21:18;2.20;;;0.40;;
36195;SDS011;22237;51.974;4.616;2023-04-24T11:23:43;2.08;;;0.63;;
36195;SDS011;22237;51.974;4.616;2023-04-24T11:26:09;2.83;;;0.82;;
36195;SDS011;22237;51.974;4.616;2023-04-24T11:28:35;1.38;;;0.60;;
36195;SDS011;22237;51.974;4.616;2023-04-24T11:31:33;3.85;;;0.63;;
36195;SDS011;22237;51.974;4.616;2023-04-24T11:33:45;3.05;;;0.40;;
36195;SDS011;22237;51.974;4.616;2023-04-24T11:36:11;0.40;;;0.38;;
36195;SDS011;22237;51.974;4.616;2023-04-24T11:38:36;0.85;;;0.50;;
36195;SDS011;22237;51.974;4.616;2023-04-24T11:41:04;2.43;;;0.67;;
36195;SDS011;22237;51.974;4.616;2023-04-24T11:43:33;5.97;;;1.38;;
36195;SDS011;22237;51.974;4.616;2023-04-24T11:45:59;2.83;;;0.88;;
36195;SDS011;22237;51.974;4.616;2023-04-24T11:48:25;6.72;;;0.98;;
36195;SDS011;22237;51.974;4.616;2023-04-24T11:50:50;8.15;;;1.20;;
36195;SDS011;22237;51.974;4.616;2023-04-24T11:53:16;3.72;;;0.77;;
36195;SDS011;22237;51.974;4.616;2023-04-24T11:55:43;5.97;;;1.08;;
36195;SDS011;22237;51.974;4.616;2023-04-24T11:58:08;1.58;;;0.52;;
36195;SDS011;22237;51.974;4.616;2023-04-24T12:00:33;5.57;;;0.60;;
36195;SDS011;22237;51.974;4.616;2023-04-24T12:03:11;2.40;;;1.10;;
36195;SDS011;22237;51.974;4.616;2023-04-24T12:05:37;5.57;;;1.15;;
36195;SDS011;22237;51.974;4.616;2023-04-24T12:08:03;7.90;;;1.40;;
36195;SDS011;22237;51.974;4.616;2023-04-24T12:10:29;7.90;;;1.70;;
36195;SDS011;22237;51.974;4.616;2023-04-24T12:12:55;6.03;;;1.35;;
36195;SDS011;22237;51.974;4.616;2023-04-24T12:15:21;4.13;;;0.85;;
36195;SDS011;22237;51.974;4.616;2023-04-24T12:17:46;5.22;;;1.30;;
36195;SDS011;22237;51.974;4.616;2023-04-24T12:20:12;4.72;;;1.00;;
36195;SDS011;22237;51.974;4.616;2023-04-24T12:25:11;2.33;;;0.73;;
36195;SDS011;22237;51.974;4.616;2023-04-24T12:27:36;10.90;;;1.10;;
36195;SDS011;22237;51.974;4.616;2023-04-24T12:30:02;4.70;;;1.20;;
36195;SDS011;22237;51.974;4.616;2023-04-24T12:32:28;2.08;;;0.80;;
36195;SDS011;22237;51.974;4.616;2023-04-24T12:34:53;7.25;;;1.38;;
36195;SDS011;22237;51.974;4.616;2023-04-24T12:37:19;2.78;;;1.05;;
36195;SDS011;22237;51.974;4.616;2023-04-24T12:39:58;2.10;;;0.98;;
36195;SDS011;22237;51.974;4.616;2023-04-24T12:42:28;6.00;;;1.23;;
36195;SDS011;22237;51.974;4.616;2023-04-24T12:45:03;5.18;;;1.60;;
36195;SDS011;22237;51.974;4.616;2023-04-24T12:47:30;6.47;;;1.55;;
36195;SDS011;22237;51.974;4.616;2023-04-24T12:49:55;5.20;;;1.98;;
36195;SDS011;22237;51.974;4.616;2023-04-24T12:52:21;9.00;;;1.40;;
36195;SDS011;22237;51.974;4.616;2023-04-24T12:54:47;4.65;;;1.13;;
36195;SDS011;22237;51.974;4.616;2023-04-24T12:57:12;2.67;;;1.42;;
36195;SDS011;22237;51.974;4.616;2023-04-24T12:59:37;12.20;;;1.20;;
36195;SDS011;22237;51.974;4.616;2023-04-24T13:02:04;13.45;;;2.58;;
36195;SDS011;22237;51.974;4.616;2023-04-24T13:04:29;11.30;;;2.03;;
36195;SDS011;22237;51.974;4.616;2023-04-24T13:06:54;7.47;;;1.80;;
36195;SDS011;22237;51.974;4.616;2023-04-24T13:09:19;4.60;;;2.15;;
36195;SDS011;22237;51.974;4.616;2023-04-24T13:11:45;10.57;;;1.87;;
36195;SDS011;22237;51.974;4.616;2023-04-24T13:14:10;11.65;;;2.67;;
36195;SDS011;22237;51.974;4.616;2023-04-24T13:16:35;7.60;;;1.70;;
36195;SDS011;22237;51.974;4.616;2023-04-24T13:19:03;6.43;;;2.17;;
36195;SDS011;22237;51.974;4.616;2023-04-24T13:21:29;7.32;;;1.45;;
36195;SDS011;22237;51.974;4.616;2023-04-24T13:23:57;9.88;;;1.70;;
36195;SDS011;22237;51.974;4.616;2023-04-24T13:26:23;12.65;;;2.05;;
36195;SDS011;22237;51.974;4.616;2023-04-24T13:28:49;18.65;;;1.50;;
36195;SDS011;22237;51.974;4.616;2023-04-24T13:31:14;7.00;;;1.97;;
36195;SDS011;22237;51.974;4.616;2023-04-24T13:33:39;7.50;;;1.60;;
36195;SDS011;22237;51.974;4.616;2023-04-24T13:36:05;8.75;;;1.40;;
36195;SDS011;22237;51.974;4.616;2023-04-24T13:38:34;10.23;;;1.70;;
36195;SDS011;22237;51.974;4.616;2023-04-24T13:40:59;6.90;;;2.35;;
36195;SDS011;22237;51.974;4.616;2023-04-24T13:43:24;7.78;;;1.95;;
36195;SDS011;22237;51.974;4.616;2023-04-24T13:45:49;4.72;;;1.55;;
36195;SDS011;22237;51.974;4.616;2023-04-24T13:48:18;5.28;;;1.58;;
36195;SDS011;22237;51.974;4.616;2023-04-24T13:50:43;5.30;;;1.52;;
36195;SDS011;22237;51.974;4.616;2023-04-24T13:53:09;4.85;;;1.65;;
36195;SDS011;22237;51.974;4.616;2023-04-24T13:55:34;6.22;;;1.80;;
36195;SDS011;22237;51.974;4.616;2023-04-24T13:58:00;3.88;;;1.85;;
36195;SDS011;22237;51.974;4.616;2023-04-24T14:00:26;6.63;;;1.60;;
36195;SDS011;22237;51.974;4.616;2023-04-24T14:02:51;4.83;;;1.53;;
36195;SDS011;22237;51.974;4.616;2023-04-24T14:05:16;4.63;;;1.37;;
36195;SDS011;22237;51.974;4.616;2023-04-24T14:07:42;7.35;;;1.50;;
36195;SDS011;22237;51.974;4.616;2023-04-24T14:10:07;9.40;;;2.30;;
36195;SDS011;22237;51.974;4.616;2023-04-24T14:12:32;4.13;;;1.75;;
36195;SDS011;22237;51.974;4.616;2023-04-24T14:14:58;3.85;;;1.52;;
36195;SDS011;22237;51.974;4.616;2023-04-24T14:17:23;8.85;;;1.52;;
36195;SDS011;22237;51.974;4.616;2023-04-24T14:19:48;6.55;;;1.65;;
36195;SDS011;22237;51.974;4.616;2023-04-24T14:22:14;3.70;;;1.92;;
36195;SDS011;22237;51.974;4.616;2023-04-24T14:24:39;8.48;;;2.03;;
36195;SDS011;22237;51.974;4.616;2023-04-24T14:27:04;9.20;;;1.73;;
36195;SDS011;22237;51.974;4.616;2023-04-24T14:29:29;9.85;;;2.70;;
36195;SDS011;22237;51.974;4.616;2023-04-24T14:31:55;14.00;;;1.90;;
36195;SDS011;22237;51.974;4.616;2023-04-24T14:34:20;6.75;;;1.92;;
36195;SDS011;22237;51.974;4.616;2023-04-24T14:36:45;7.40;;;2.45;;
36195;SDS011;22237;51.974;4.616;2023-04-24T14:39:10;13.23;;;2.23;;
36195;SDS011;22237;51.974;4.616;2023-04-24T14:41:36;4.97;;;1.83;;
36195;SDS011;22237;51.974;4.616;2023-04-24T14:44:02;9.80;;;1.80;;
36195;SDS011;22237;51.974;4.616;2023-04-24T14:46:28;8.00;;;2.03;;
36195;SDS011;22237;51.974;4.616;2023-04-24T14:48:55;16.15;;;3.15;;
36195;SDS011;22237;51.974;4.616;2023-04-24T14:51:20;8.23;;;2.40;;
36195;SDS011;22237;51.974;4.616;2023-04-24T14:53:45;6.57;;;2.10;;